Portada
METAR-TAF:

METAR-TAF

Aeroports :

Aizawl, Índia

latitud: 23-50-18N, longitud: 92-37-13E, altitud: 405 m

Observació

L'informe es va fer fa 35 minuts, a les 10:00 UTC
Vent 4 kt del Oest
Temperatura 25°C
Humitat 74%
Pressió 1011 hPa
Visibilitat: 3000 m
Núvols disperses a una alçada de 1800 ft
Escasses núvols a una alçada de 3000 ft, Cumulonimbus.
Cel ennuvolat a una alçada de 10000 ft
tempesta

METAR: VELP 061000Z 28004KT 3000 TS SCT018 FEW030CB BKN100 25/20 Q1011 NOSIG

Hora: 16:05 (10:35 UTC)

Pronòstic

L'informe es va fer fa 2 hores i 35 minuts, a les 08:00 UTC
Pronòstic vàlid del 06 a les 09 UTC al 06 a les 18 UTC
Vent 5 kt del Nord-Est
Visibilitat: 4000 m
Núvols disperses a una alçada de 1800 ft
Cel ennuvolat a una alçada de 10000 ft
calitja

TAF: VELP 060800Z 0609/0618 05005KT 4000 HZ SCT018 BKN100

Observacions i pronòstics meteorològics de més de 4000 aeroports (METAR i TAF).

Les estacions disponibles són els punts grocs i vermells al mapa.

Posi el ratolí al punt desitjat per veure el nom de l'estació.

Feu clic per veure les observacions i els pronòstics meteorològics.

Per canviar el mapa: feu clic els botons verds amb una creu de color negre per apropar; al botó verd amb un guió per allunyar la imatge; o en les fletxes verdes per a mapes adjacents.


METAR-TAF: